TFM - Tactical Decision Aid
ID: Runway Winds: CIG/VIS Threshold:

KHOB - Hobbs Arpt, NM, US

Updated at: 0156 UTC 12 May 2021
Latest TAF at: 0127 UTC 12 May 2021

TAF Board

Time<<13/02Z 13/03Z 13/04Z 13/05Z 13/06Z 13/07Z 13/08Z 13/09Z 13/10Z 13/11Z 13/12Z 13/13Z 13/14Z
Type
VIS
CIG
Cover
FltCat
WX
WDir
WSpd
WGst

TDA Impact Legend

  None Marginal Slight Moderate High
Visibility (sm) >5 3≤X≤5 2≤X<3 0.5≤X<2 <0.5
Ceiling (100 ft) >30 10≤X≤30 6≤X<10 2≤X<6 <2
Wind Speed (kt) <15 15≤X<25 25≤X<30 ≥30
Wind Gust (kt) <15 15≤X<25 25≤X<35 ≥35
Weather No Wx Reported VCTS -TS,-FZRA TS,FZRA +TS,+FZRA
TAF
KHOB 120127Z 1201/1224 05011KT P6SM OVC008
  TEMPO 1201/1203 5SM BR
  FM121900 06007KT P6SM BKN025


Radar Display
Forecast Discussion